sensor_id;sensor_type;location;lat;lon;timestamp;P1;durP1;ratioP1;P2;durP2;ratioP2
9294;SDS011;4686;44.496;11.324;2023-02-23T00:00:38;68.80;;;44.60;;
9294;SDS011;4686;44.496;11.324;2023-02-23T00:03:08;64.03;;;43.87;;
9294;SDS011;4686;44.496;11.324;2023-02-23T00:05:35;59.43;;;43.07;;
9294;SDS011;4686;44.496;11.324;2023-02-23T00:08:03;64.10;;;43.90;;
9294;SDS011;4686;44.496;11.324;2023-02-23T00:10:30;64.43;;;44.20;;
9294;SDS011;4686;44.496;11.324;2023-02-23T00:12:58;64.07;;;43.37;;
9294;SDS011;4686;44.496;11.324;2023-02-23T00:15:26;63.93;;;40.70;;
9294;SDS011;4686;44.496;11.324;2023-02-23T00:17:54;54.07;;;36.93;;
9294;SDS011;4686;44.496;11.324;2023-02-23T00:20:21;56.80;;;38.57;;
9294;SDS011;4686;44.496;11.324;2023-02-23T00:22:51;47.13;;;35.00;;
9294;SDS011;4686;44.496;11.324;2023-02-23T00:25:18;58.43;;;37.00;;
9294;SDS011;4686;44.496;11.324;2023-02-23T00:27:46;48.97;;;36.23;;
9294;SDS011;4686;44.496;11.324;2023-02-23T00:30:13;47.40;;;36.00;;
9294;SDS011;4686;44.496;11.324;2023-02-23T00:32:43;49.13;;;35.93;;
9294;SDS011;4686;44.496;11.324;2023-02-23T00:35:10;41.60;;;31.93;;
9294;SDS011;4686;44.496;11.324;2023-02-23T00:37:41;45.63;;;34.00;;
9294;SDS011;4686;44.496;11.324;2023-02-23T00:40:10;42.10;;;32.80;;
9294;SDS011;4686;44.496;11.324;2023-02-23T00:42:38;51.20;;;34.87;;
9294;SDS011;4686;44.496;11.324;2023-02-23T00:45:06;43.10;;;32.47;;
9294;SDS011;4686;44.496;11.324;2023-02-23T00:47:36;41.23;;;30.53;;
9294;SDS011;4686;44.496;11.324;2023-02-23T00:50:05;39.93;;;31.87;;
9294;SDS011;4686;44.496;11.324;2023-02-23T00:52:36;43.37;;;31.13;;
9294;SDS011;4686;44.496;11.324;2023-02-23T00:55:04;43.93;;;31.30;;
9294;SDS011;4686;44.496;11.324;2023-02-23T00:57:32;38.93;;;30.07;;
9294;SDS011;4686;44.496;11.324;2023-02-23T00:59:59;35.07;;;29.60;;
9294;SDS011;4686;44.496;11.324;2023-02-23T01:02:31;37.80;;;27.30;;
9294;SDS011;4686;44.496;11.324;2023-02-23T01:04:58;37.53;;;28.70;;
9294;SDS011;4686;44.496;11.324;2023-02-23T01:07:27;40.20;;;27.37;;
9294;SDS011;4686;44.496;11.324;2023-02-23T01:09:54;33.57;;;26.80;;
9294;SDS011;4686;44.496;11.324;2023-02-23T01:12:21;85.87;;;31.77;;
9294;SDS011;4686;44.496;11.324;2023-02-23T01:14:48;37.57;;;25.97;;
9294;SDS011;4686;44.496;11.324;2023-02-23T01:17:16;37.30;;;27.87;;
9294;SDS011;4686;44.496;11.324;2023-02-23T01:19:43;39.77;;;29.13;;
9294;SDS011;4686;44.496;11.324;2023-02-23T01:22:10;43.63;;;29.30;;
9294;SDS011;4686;44.496;11.324;2023-02-23T01:24:38;43.33;;;29.13;;
9294;SDS011;4686;44.496;11.324;2023-02-23T01:27:06;41.07;;;29.30;;
9294;SDS011;4686;44.496;11.324;2023-02-23T01:29:34;39.77;;;29.20;;
9294;SDS011;4686;44.496;11.324;2023-02-23T01:32:01;40.93;;;29.17;;
9294;SDS011;4686;44.496;11.324;2023-02-23T01:34:29;37.33;;;29.90;;
9294;SDS011;4686;44.496;11.324;2023-02-23T01:36:56;50.17;;;30.53;;
9294;SDS011;4686;44.496;11.324;2023-02-23T01:39:23;41.57;;;27.70;;
9294;SDS011;4686;44.496;11.324;2023-02-23T01:41:54;39.07;;;26.60;;
9294;SDS011;4686;44.496;11.324;2023-02-23T01:47:06;39.20;;;27.30;;
9294;SDS011;4686;44.496;11.324;2023-02-23T01:49:34;35.07;;;26.37;;
9294;SDS011;4686;44.496;11.324;2023-02-23T01:52:02;33.40;;;26.80;;
9294;SDS011;4686;44.496;11.324;2023-02-23T01:54:30;34.50;;;26.63;;
9294;SDS011;4686;44.496;11.324;2023-02-23T01:57:01;35.20;;;24.43;;
9294;SDS011;4686;44.496;11.324;2023-02-23T01:59:31;34.73;;;24.27;;
9294;SDS011;4686;44.496;11.324;2023-02-23T02:02:00;28.83;;;24.10;;
9294;SDS011;4686;44.496;11.324;2023-02-23T02:04:29;29.10;;;24.33;;
9294;SDS011;4686;44.496;11.324;2023-02-23T02:07:02;31.00;;;24.20;;
9294;SDS011;4686;44.496;11.324;2023-02-23T02:09:31;32.00;;;22.87;;
9294;SDS011;4686;44.496;11.324;2023-02-23T02:12:04;26.90;;;21.67;;
9294;SDS011;4686;44.496;11.324;2023-02-23T02:14:32;28.70;;;23.57;;
9294;SDS011;4686;44.496;11.324;2023-02-23T02:17:10;30.97;;;23.03;;
9294;SDS011;4686;44.496;11.324;2023-02-23T02:19:45;33.50;;;24.90;;
9294;SDS011;4686;44.496;11.324;2023-02-23T02:22:28;27.80;;;21.57;;
9294;SDS011;4686;44.496;11.324;2023-02-23T02:27:55;31.47;;;24.20;;
9294;SDS011;4686;44.496;11.324;2023-02-23T02:38:50;26.17;;;21.37;;
9294;SDS011;4686;44.496;11.324;2023-02-23T02:41:22;27.00;;;21.03;;
9294;SDS011;4686;44.496;11.324;2023-02-23T02:43:54;29.47;;;21.60;;
9294;SDS011;4686;44.496;11.324;2023-02-23T02:46:24;28.40;;;21.70;;
9294;SDS011;4686;44.496;11.324;2023-02-23T02:48:53;26.63;;;21.67;;
9294;SDS011;4686;44.496;11.324;2023-02-23T02:51:24;30.27;;;22.40;;
9294;SDS011;4686;44.496;11.324;2023-02-23T02:53:56;30.80;;;21.40;;
9294;SDS011;4686;44.496;11.324;2023-02-23T02:56:30;29.97;;;22.90;;
9294;SDS011;4686;44.496;11.324;2023-02-23T02:59:00;32.03;;;22.53;;
9294;SDS011;4686;44.496;11.324;2023-02-23T03:01:30;32.43;;;23.30;;
9294;SDS011;4686;44.496;11.324;2023-02-23T03:04:19;26.70;;;22.83;;
9294;SDS011;4686;44.496;11.324;2023-02-23T03:07:06;30.80;;;22.00;;
9294;SDS011;4686;44.496;11.324;2023-02-23T03:09:54;25.37;;;19.90;;
9294;SDS011;4686;44.496;11.324;2023-02-23T03:12:42;25.90;;;19.90;;
9294;SDS011;4686;44.496;11.324;2023-02-23T03:15:33;25.20;;;19.83;;
9294;SDS011;4686;44.496;11.324;2023-02-23T03:18:24;21.90;;;18.53;;
9294;SDS011;4686;44.496;11.324;2023-02-23T03:21:14;20.03;;;17.90;;
9294;SDS011;4686;44.496;11.324;2023-02-23T03:24:01;24.37;;;18.33;;
9294;SDS011;4686;44.496;11.324;2023-02-23T03:26:52;29.57;;;19.00;;
9294;SDS011;4686;44.496;11.324;2023-02-23T03:29:39;29.77;;;19.63;;
9294;SDS011;4686;44.496;11.324;2023-02-23T03:32:27;23.00;;;18.93;;
9294;SDS011;4686;44.496;11.324;2023-02-23T03:35:13;21.00;;;18.80;;
9294;SDS011;4686;44.496;11.324;2023-02-23T03:37:59;23.87;;;19.77;;
9294;SDS011;4686;44.496;11.324;2023-02-23T03:40:47;23.43;;;18.13;;
9294;SDS011;4686;44.496;11.324;2023-02-23T03:43:35;25.40;;;19.23;;
9294;SDS011;4686;44.496;11.324;2023-02-23T03:49:26;21.60;;;18.17;;
9294;SDS011;4686;44.496;11.324;2023-02-23T03:52:13;26.67;;;19.90;;
9294;SDS011;4686;44.496;11.324;2023-02-23T03:55:00;22.20;;;18.43;;
9294;SDS011;4686;44.496;11.324;2023-02-23T03:57:46;33.37;;;20.27;;
9294;SDS011;4686;44.496;11.324;2023-02-23T04:00:35;23.20;;;19.10;;
9294;SDS011;4686;44.496;11.324;2023-02-23T04:03:22;27.50;;;21.17;;
9294;SDS011;4686;44.496;11.324;2023-02-23T04:06:10;29.37;;;22.27;;
9294;SDS011;4686;44.496;11.324;2023-02-23T04:08:56;30.53;;;22.23;;
9294;SDS011;4686;44.496;11.324;2023-02-23T04:11:44;30.67;;;21.70;;
9294;SDS011;4686;44.496;11.324;2023-02-23T04:14:32;35.50;;;20.30;;
9294;SDS011;4686;44.496;11.324;2023-02-23T04:17:02;32.87;;;21.87;;
9294;SDS011;4686;44.496;11.324;2023-02-23T04:19:29;27.20;;;22.33;;
9294;SDS011;4686;44.496;11.324;2023-02-23T04:21:56;27.70;;;20.43;;
9294;SDS011;4686;44.496;11.324;2023-02-23T04:24:23;30.70;;;21.20;;
9294;SDS011;4686;44.496;11.324;2023-02-23T04:26:50;27.20;;;21.23;;
9294;SDS011;4686;44.496;11.324;2023-02-23T04:29:18;28.53;;;21.07;;
9294;SDS011;4686;44.496;11.324;2023-02-23T04:31:45;34.53;;;24.07;;
9294;SDS011;4686;44.496;11.324;2023-02-23T04:34:14;35.40;;;23.77;;
9294;SDS011;4686;44.496;11.324;2023-02-23T04:36:41;35.77;;;23.87;;
9294;SDS011;4686;44.496;11.324;2023-02-23T04:39:08;39.30;;;27.17;;
9294;SDS011;4686;44.496;11.324;2023-02-23T04:41:36;35.20;;;25.60;;
9294;SDS011;4686;44.496;11.324;2023-02-23T04:44:03;32.67;;;25.20;;
9294;SDS011;4686;44.496;11.324;2023-02-23T04:46:31;33.80;;;24.13;;
9294;SDS011;4686;44.496;11.324;2023-02-23T04:48:58;45.80;;;25.00;;
9294;SDS011;4686;44.496;11.324;2023-02-23T04:51:27;44.47;;;25.30;;
9294;SDS011;4686;44.496;11.324;2023-02-23T04:53:56;38.00;;;25.27;;
9294;SDS011;4686;44.496;11.324;2023-02-23T04:56:23;35.13;;;24.00;;
9294;SDS011;4686;44.496;11.324;2023-02-23T04:58:51;32.30;;;24.87;;
9294;SDS011;4686;44.496;11.324;2023-02-23T05:01:18;36.30;;;24.40;;
9294;SDS011;4686;44.496;11.324;2023-02-23T05:03:46;41.10;;;25.30;;
9294;SDS011;4686;44.496;11.324;2023-02-23T05:06:13;36.90;;;27.33;;
9294;SDS011;4686;44.496;11.324;2023-02-23T05:08:42;36.33;;;27.00;;
9294;SDS011;4686;44.496;11.324;2023-02-23T05:11:09;38.33;;;28.40;;
9294;SDS011;4686;44.496;11.324;2023-02-23T05:13:37;40.00;;;27.50;;
9294;SDS011;4686;44.496;11.324;2023-02-23T05:16:04;38.87;;;28.03;;
9294;SDS011;4686;44.496;11.324;2023-02-23T05:18:32;39.43;;;28.30;;
9294;SDS011;4686;44.496;11.324;2023-02-23T05:21:02;33.67;;;26.20;;
9294;SDS011;4686;44.496;11.324;2023-02-23T05:23:31;38.43;;;28.00;;
9294;SDS011;4686;44.496;11.324;2023-02-23T05:26:00;40.43;;;27.93;;
9294;SDS011;4686;44.496;11.324;2023-02-23T05:28:28;31.40;;;24.30;;
9294;SDS011;4686;44.496;11.324;2023-02-23T05:30:55;30.80;;;25.60;;
9294;SDS011;4686;44.496;11.324;2023-02-23T05:33:24;35.70;;;26.80;;
9294;SDS011;4686;44.496;11.324;2023-02-23T05:35:51;41.13;;;26.63;;
9294;SDS011;4686;44.496;11.324;2023-02-23T05:38:18;38.30;;;27.37;;
9294;SDS011;4686;44.496;11.324;2023-02-23T05:40:46;35.63;;;27.00;;
9294;SDS011;4686;44.496;11.324;2023-02-23T05:43:14;37.23;;;26.77;;
9294;SDS011;4686;44.496;11.324;2023-02-23T05:45:42;38.20;;;25.20;;
9294;SDS011;4686;44.496;11.324;2023-02-23T05:48:10;32.40;;;25.13;;
9294;SDS011;4686;44.496;11.324;2023-02-23T05:50:37;31.30;;;24.77;;
9294;SDS011;4686;44.496;11.324;2023-02-23T05:53:04;30.27;;;23.80;;
9294;SDS011;4686;44.496;11.324;2023-02-23T05:55:32;29.17;;;24.40;;
9294;SDS011;4686;44.496;11.324;2023-02-23T05:57:59;30.27;;;23.73;;
9294;SDS011;4686;44.496;11.324;2023-02-23T06:00:27;36.77;;;26.33;;
9294;SDS011;4686;44.496;11.324;2023-02-23T06:02:54;33.40;;;27.00;;
9294;SDS011;4686;44.496;11.324;2023-02-23T06:05:22;36.93;;;28.17;;
9294;SDS011;4686;44.496;11.324;2023-02-23T06:07:49;43.40;;;30.83;;
9294;SDS011;4686;44.496;11.324;2023-02-23T06:10:16;37.97;;;28.97;;
9294;SDS011;4686;44.496;11.324;2023-02-23T06:12:44;43.97;;;29.63;;
9294;SDS011;4686;44.496;11.324;2023-02-23T06:15:11;42.00;;;30.87;;
9294;SDS011;4686;44.496;11.324;2023-02-23T06:17:39;43.67;;;32.73;;
9294;SDS011;4686;44.496;11.324;2023-02-23T06:20:07;54.10;;;32.53;;
9294;SDS011;4686;44.496;11.324;2023-02-23T06:22:35;49.43;;;33.67;;
9294;SDS011;4686;44.496;11.324;2023-02-23T06:25:02;44.90;;;32.53;;
9294;SDS011;4686;44.496;11.324;2023-02-23T06:27:30;48.53;;;34.73;;
9294;SDS011;4686;44.496;11.324;2023-02-23T06:29:57;54.47;;;35.53;;
9294;SDS011;4686;44.496;11.324;2023-02-23T06:32:24;50.57;;;33.57;;
9294;SDS011;4686;44.496;11.324;2023-02-23T06:34:53;49.80;;;36.00;;
9294;SDS011;4686;44.496;11.324;2023-02-23T06:37:20;59.67;;;37.20;;
9294;SDS011;4686;44.496;11.324;2023-02-23T06:39:47;51.43;;;34.77;;
9294;SDS011;4686;44.496;11.324;2023-02-23T06:42:15;51.87;;;34.80;;
9294;SDS011;4686;44.496;11.324;2023-02-23T06:44:43;56.43;;;36.90;;
9294;SDS011;4686;44.496;11.324;2023-02-23T06:47:10;54.13;;;37.57;;
9294;SDS011;4686;44.496;11.324;2023-02-23T06:49:37;56.00;;;37.13;;
9294;SDS011;4686;44.496;11.324;2023-02-23T06:52:06;48.90;;;34.67;;
9294;SDS011;4686;44.496;11.324;2023-02-23T06:54:34;61.97;;;38.93;;
9294;SDS011;4686;44.496;11.324;2023-02-23T06:57:02;51.70;;;37.33;;
9294;SDS011;4686;44.496;11.324;2023-02-23T06:59:29;62.17;;;40.73;;
9294;SDS011;4686;44.496;11.324;2023-02-23T07:01:57;61.93;;;40.37;;
9294;SDS011;4686;44.496;11.324;2023-02-23T07:04:24;53.50;;;37.97;;
9294;SDS011;4686;44.496;11.324;2023-02-23T07:06:51;62.80;;;40.40;;
9294;SDS011;4686;44.496;11.324;2023-02-23T07:09:19;67.27;;;39.77;;
9294;SDS011;4686;44.496;11.324;2023-02-23T07:11:47;57.30;;;39.93;;
9294;SDS011;4686;44.496;11.324;2023-02-23T07:14:14;60.60;;;40.97;;
9294;SDS011;4686;44.496;11.324;2023-02-23T07:16:41;56.67;;;40.97;;
9294;SDS011;4686;44.496;11.324;2023-02-23T07:19:08;46.63;;;35.77;;
9294;SDS011;4686;44.496;11.324;2023-02-23T07:21:36;57.43;;;38.47;;
9294;SDS011;4686;44.496;11.324;2023-02-23T07:24:04;59.17;;;39.83;;
9294;SDS011;4686;44.496;11.324;2023-02-23T07:26:34;64.63;;;41.00;;
9294;SDS011;4686;44.496;11.324;2023-02-23T07:29:03;64.30;;;42.17;;
9294;SDS011;4686;44.496;11.324;2023-02-23T07:31:31;62.40;;;40.20;;
9294;SDS011;4686;44.496;11.324;2023-02-23T07:33:58;65.73;;;42.50;;
9294;SDS011;4686;44.496;11.324;2023-02-23T07:36:26;66.50;;;44.17;;
9294;SDS011;4686;44.496;11.324;2023-02-23T07:38:53;74.70;;;43.57;;
9294;SDS011;4686;44.496;11.324;2023-02-23T07:41:20;65.80;;;42.97;;
9294;SDS011;4686;44.496;11.324;2023-02-23T07:43:55;68.10;;;44.20;;
9294;SDS011;4686;44.496;11.324;2023-02-23T07:46:25;64.90;;;44.10;;
9294;SDS011;4686;44.496;11.324;2023-02-23T07:48:52;71.43;;;40.87;;
9294;SDS011;4686;44.496;11.324;2023-02-23T07:51:20;69.50;;;45.20;;
9294;SDS011;4686;44.496;11.324;2023-02-23T07:53:50;76.40;;;49.00;;
9294;SDS011;4686;44.496;11.324;2023-02-23T07:56:19;78.83;;;49.23;;
9294;SDS011;4686;44.496;11.324;2023-02-23T07:58:46;69.73;;;44.07;;
9294;SDS011;4686;44.496;11.324;2023-02-23T08:01:15;65.20;;;44.83;;
9294;SDS011;4686;44.496;11.324;2023-02-23T08:03:42;70.40;;;45.07;;
9294;SDS011;4686;44.496;11.324;2023-02-23T08:06:15;70.80;;;43.60;;
9294;SDS011;4686;44.496;11.324;2023-02-23T08:08:45;69.20;;;45.50;;
9294;SDS011;4686;44.496;11.324;2023-02-23T08:11:12;63.53;;;40.60;;
9294;SDS011;4686;44.496;11.324;2023-02-23T08:13:40;62.43;;;40.93;;
9294;SDS011;4686;44.496;11.324;2023-02-23T08:16:09;58.17;;;43.07;;
9294;SDS011;4686;44.496;11.324;2023-02-23T08:18:38;57.43;;;42.00;;
9294;SDS011;4686;44.496;11.324;2023-02-23T08:21:05;59.00;;;40.50;;
9294;SDS011;4686;44.496;11.324;2023-02-23T08:23:33;58.43;;;39.57;;
9294;SDS011;4686;44.496;11.324;2023-02-23T08:26:00;56.80;;;38.70;;
9294;SDS011;4686;44.496;11.324;2023-02-23T08:28:29;64.93;;;41.77;;
9294;SDS011;4686;44.496;11.324;2023-02-23T08:30:56;62.10;;;43.10;;
9294;SDS011;4686;44.496;11.324;2023-02-23T08:33:24;67.40;;;44.73;;
9294;SDS011;4686;44.496;11.324;2023-02-23T08:35:53;85.43;;;52.37;;
9294;SDS011;4686;44.496;11.324;2023-02-23T08:38:26;86.90;;;55.17;;
9294;SDS011;4686;44.496;11.324;2023-02-23T08:40:54;80.93;;;54.00;;
9294;SDS011;4686;44.496;11.324;2023-02-23T08:43:21;87.70;;;54.17;;
9294;SDS011;4686;44.496;11.324;2023-02-23T08:45:52;92.63;;;58.67;;
9294;SDS011;4686;44.496;11.324;2023-02-23T08:48:19;91.77;;;59.33;;
9294;SDS011;4686;44.496;11.324;2023-02-23T08:50:55;93.53;;;60.27;;
9294;SDS011;4686;44.496;11.324;2023-02-23T08:53:22;98.07;;;59.10;;
9294;SDS011;4686;44.496;11.324;2023-02-23T08:55:58;106.83;;;60.80;;
9294;SDS011;4686;44.496;11.324;2023-02-23T08:58:27;99.50;;;58.00;;
9294;SDS011;4686;44.496;11.324;2023-02-23T09:00:55;93.53;;;60.87;;
9294;SDS011;4686;44.496;11.324;2023-02-23T09:03:30;109.33;;;64.03;;
9294;SDS011;4686;44.496;11.324;2023-02-23T09:06:11;109.03;;;69.50;;
9294;SDS011;4686;44.496;11.324;2023-02-23T09:08:39;103.20;;;64.07;;
9294;SDS011;4686;44.496;11.324;2023-02-23T09:11:06;107.00;;;68.33;;
9294;SDS011;4686;44.496;11.324;2023-02-23T09:13:34;104.37;;;63.93;;
9294;SDS011;4686;44.496;11.324;2023-02-23T09:16:01;94.80;;;60.10;;
9294;SDS011;4686;44.496;11.324;2023-02-23T09:18:33;100.30;;;60.77;;
9294;SDS011;4686;44.496;11.324;2023-02-23T09:21:01;99.93;;;59.67;;
9294;SDS011;4686;44.496;11.324;2023-02-23T09:23:36;98.37;;;62.63;;
9294;SDS011;4686;44.496;11.324;2023-02-23T09:26:06;103.00;;;62.47;;
9294;SDS011;4686;44.496;11.324;2023-02-23T09:28:33;96.30;;;62.70;;
9294;SDS011;4686;44.496;11.324;2023-02-23T09:31:05;107.37;;;62.43;;
9294;SDS011;4686;44.496;11.324;2023-02-23T09:33:33;91.43;;;60.77;;
9294;SDS011;4686;44.496;11.324;2023-02-23T09:36:03;117.83;;;72.13;;
9294;SDS011;4686;44.496;11.324;2023-02-23T09:38:31;125.97;;;75.57;;
9294;SDS011;4686;44.496;11.324;2023-02-23T09:41:00;124.13;;;79.47;;
9294;SDS011;4686;44.496;11.324;2023-02-23T09:43:29;130.53;;;82.20;;
9294;SDS011;4686;44.496;11.324;2023-02-23T09:45:59;121.43;;;77.20;;
9294;SDS011;4686;44.496;11.324;2023-02-23T09:48:29;124.70;;;74.67;;
9294;SDS011;4686;44.496;11.324;2023-02-23T09:50:56;127.37;;;78.33;;
9294;SDS011;4686;44.496;11.324;2023-02-23T09:53:28;114.90;;;76.43;;
9294;SDS011;4686;44.496;11.324;2023-02-23T09:55:56;125.07;;;77.80;;
9294;SDS011;4686;44.496;11.324;2023-02-23T09:58:26;122.63;;;77.60;;
9294;SDS011;4686;44.496;11.324;2023-02-23T10:03:36;122.20;;;77.80;;
9294;SDS011;4686;44.496;11.324;2023-02-23T10:06:06;119.40;;;76.10;;
9294;SDS011;4686;44.496;11.324;2023-02-23T10:08:42;133.63;;;85.70;;
9294;SDS011;4686;44.496;11.324;2023-02-23T10:11:15;127.80;;;84.23;;
9294;SDS011;4686;44.496;11.324;2023-02-23T10:13:48;135.53;;;85.97;;
9294;SDS011;4686;44.496;11.324;2023-02-23T10:16:20;129.57;;;83.00;;
9294;SDS011;4686;44.496;11.324;2023-02-23T10:18:50;129.70;;;80.60;;
9294;SDS011;4686;44.496;11.324;2023-02-23T10:21:22;131.30;;;81.20;;
9294;SDS011;4686;44.496;11.324;2023-02-23T10:23:57;122.30;;;80.00;;
9294;SDS011;4686;44.496;11.324;2023-02-23T10:26:31;130.17;;;81.50;;
9294;SDS011;4686;44.496;11.324;2023-02-23T10:29:02;128.60;;;83.20;;
9294;SDS011;4686;44.496;11.324;2023-02-23T10:31:32;130.53;;;79.37;;
9294;SDS011;4686;44.496;11.324;2023-02-23T10:34:02;139.33;;;88.37;;
9294;SDS011;4686;44.496;11.324;2023-02-23T10:36:35;142.90;;;91.53;;
9294;SDS011;4686;44.496;11.324;2023-02-23T10:39:04;139.50;;;89.77;;
9294;SDS011;4686;44.496;11.324;2023-02-23T10:41:32;138.67;;;92.97;;
9294;SDS011;4686;44.496;11.324;2023-02-23T10:43:59;148.00;;;93.87;;
9294;SDS011;4686;44.496;11.324;2023-02-23T10:46:31;146.17;;;92.73;;
9294;SDS011;4686;44.496;11.324;2023-02-23T10:49:01;140.13;;;86.87;;
9294;SDS011;4686;44.496;11.324;2023-02-23T10:51:31;144.13;;;89.30;;
9294;SDS011;4686;44.496;11.324;2023-02-23T10:53:59;139.60;;;87.00;;
9294;SDS011;4686;44.496;11.324;2023-02-23T10:56:48;145.40;;;90.53;;
9294;SDS011;4686;44.496;11.324;2023-02-23T10:59:17;131.23;;;83.40;;
9294;SDS011;4686;44.496;11.324;2023-02-23T11:01:48;138.93;;;90.33;;
9294;SDS011;4686;44.496;11.324;2023-02-23T11:04:17;139.73;;;88.03;;
9294;SDS011;4686;44.496;11.324;2023-02-23T11:06:47;138.43;;;89.50;;
9294;SDS011;4686;44.496;11.324;2023-02-23T11:09:21;137.67;;;84.87;;
9294;SDS011;4686;44.496;11.324;2023-02-23T11:11:54;121.17;;;70.60;;
9294;SDS011;4686;44.496;11.324;2023-02-23T11:14:23;122.63;;;73.83;;
9294;SDS011;4686;44.496;11.324;2023-02-23T11:16:56;124.70;;;75.00;;
9294;SDS011;4686;44.496;11.324;2023-02-23T11:19:29;138.37;;;82.10;;
9294;SDS011;4686;44.496;11.324;2023-02-23T11:21:57;128.60;;;80.60;;
9294;SDS011;4686;44.496;11.324;2023-02-23T11:24:26;125.20;;;78.83;;
9294;SDS011;4686;44.496;11.324;2023-02-23T11:26:56;130.47;;;82.03;;
9294;SDS011;4686;44.496;11.324;2023-02-23T11:29:28;129.00;;;82.50;;
9294;SDS011;4686;44.496;11.324;2023-02-23T11:32:01;122.73;;;77.53;;
9294;SDS011;4686;44.496;11.324;2023-02-23T11:34:33;119.60;;;75.23;;
9294;SDS011;4686;44.496;11.324;2023-02-23T11:37:05;102.60;;;62.30;;
9294;SDS011;4686;44.496;11.324;2023-02-23T11:39:37;97.80;;;61.03;;
9294;SDS011;4686;44.496;11.324;2023-02-23T11:42:16;71.83;;;49.07;;
9294;SDS011;4686;44.496;11.324;2023-02-23T11:44:50;76.80;;;49.60;;
9294;SDS011;4686;44.496;11.324;2023-02-23T11:47:19;62.83;;;43.73;;
9294;SDS011;4686;44.496;11.324;2023-02-23T11:49:48;64.17;;;40.17;;
9294;SDS011;4686;44.496;11.324;2023-02-23T11:52:16;59.43;;;41.70;;
9294;SDS011;4686;44.496;11.324;2023-02-23T11:54:48;60.77;;;41.93;;
9294;SDS011;4686;44.496;11.324;2023-02-23T11:57:18;61.40;;;40.90;;
9294;SDS011;4686;44.496;11.324;2023-02-23T11:59:47;60.47;;;38.30;;
9294;SDS011;4686;44.496;11.324;2023-02-23T12:02:20;59.60;;;42.93;;
9294;SDS011;4686;44.496;11.324;2023-02-23T12:04:49;71.43;;;49.20;;
9294;SDS011;4686;44.496;11.324;2023-02-23T12:07:23;65.47;;;43.80;;
9294;SDS011;4686;44.496;11.324;2023-02-23T12:10:05;65.73;;;42.37;;
9294;SDS011;4686;44.496;11.324;2023-02-23T12:12:38;67.20;;;45.17;;
9294;SDS011;4686;44.496;11.324;2023-02-23T12:15:10;54.30;;;38.80;;
9294;SDS011;4686;44.496;11.324;2023-02-23T12:17:42;59.33;;;38.93;;
9294;SDS011;4686;44.496;11.324;2023-02-23T12:20:17;54.90;;;36.43;;
9294;SDS011;4686;44.496;11.324;2023-02-23T12:22:47;50.57;;;37.20;;
9294;SDS011;4686;44.496;11.324;2023-02-23T12:25:19;66.37;;;45.53;;
9294;SDS011;4686;44.496;11.324;2023-02-23T12:27:49;65.57;;;45.53;;
9294;SDS011;4686;44.496;11.324;2023-02-23T12:30:18;75.93;;;47.30;;
9294;SDS011;4686;44.496;11.324;2023-02-23T12:32:50;76.20;;;48.13;;
9294;SDS011;4686;44.496;11.324;2023-02-23T12:35:21;75.13;;;50.07;;
9294;SDS011;4686;44.496;11.324;2023-02-23T12:37:52;62.73;;;43.70;;
9294;SDS011;4686;44.496;11.324;2023-02-23T12:40:29;75.87;;;45.00;;
9294;SDS011;4686;44.496;11.324;2023-02-23T12:42:59;67.17;;;45.60;;
9294;SDS011;4686;44.496;11.324;2023-02-23T12:45:31;66.77;;;46.60;;
9294;SDS011;4686;44.496;11.324;2023-02-23T12:48:11;58.90;;;43.50;;
9294;SDS011;4686;44.496;11.324;2023-02-23T12:50:40;70.03;;;48.50;;
9294;SDS011;4686;44.496;11.324;2023-02-23T12:53:18;60.67;;;40.80;;
9294;SDS011;4686;44.496;11.324;2023-02-23T12:55:53;66.83;;;44.20;;
9294;SDS011;4686;44.496;11.324;2023-02-23T12:58:32;67.53;;;44.20;;
9294;SDS011;4686;44.496;11.324;2023-02-23T13:01:04;70.17;;;43.37;;
9294;SDS011;4686;44.496;11.324;2023-02-23T13:06:49;78.53;;;49.20;;
9294;SDS011;4686;44.496;11.324;2023-02-23T13:09:32;69.13;;;46.17;;
9294;SDS011;4686;44.496;11.324;2023-02-23T13:12:18;70.43;;;46.00;;
9294;SDS011;4686;44.496;11.324;2023-02-23T13:14:51;68.63;;;45.80;;
9294;SDS011;4686;44.496;11.324;2023-02-23T13:17:27;70.67;;;46.47;;
9294;SDS011;4686;44.496;11.324;2023-02-23T13:19:58;71.37;;;49.57;;
9294;SDS011;4686;44.496;11.324;2023-02-23T13:22:30;64.40;;;44.40;;
9294;SDS011;4686;44.496;11.324;2023-02-23T13:25:01;67.00;;;46.73;;
9294;SDS011;4686;44.496;11.324;2023-02-23T13:27:30;65.27;;;46.30;;
9294;SDS011;4686;44.496;11.324;2023-02-23T13:30:00;73.03;;;50.77;;
9294;SDS011;4686;44.496;11.324;2023-02-23T13:32:29;78.53;;;50.10;;
9294;SDS011;4686;44.496;11.324;2023-02-23T13:34:58;68.50;;;48.67;;
9294;SDS011;4686;44.496;11.324;2023-02-23T13:37:27;73.17;;;50.43;;
9294;SDS011;4686;44.496;11.324;2023-02-23T13:40:00;78.60;;;49.80;;
9294;SDS011;4686;44.496;11.324;2023-02-23T13:42:30;76.53;;;50.70;;
9294;SDS011;4686;44.496;11.324;2023-02-23T13:45:00;78.60;;;50.40;;
9294;SDS011;4686;44.496;11.324;2023-02-23T13:47:36;74.90;;;50.10;;
9294;SDS011;4686;44.496;11.324;2023-02-23T13:50:14;71.40;;;47.60;;
9294;SDS011;4686;44.496;11.324;2023-02-23T13:52:42;65.87;;;46.93;;
9294;SDS011;4686;44.496;11.324;2023-02-23T13:58:02;83.07;;;51.10;;
9294;SDS011;4686;44.496;11.324;2023-02-23T14:00:30;70.97;;;49.07;;
9294;SDS011;4686;44.496;11.324;2023-02-23T14:03:00;71.00;;;48.20;;
9294;SDS011;4686;44.496;11.324;2023-02-23T14:05:29;74.33;;;49.40;;
9294;SDS011;4686;44.496;11.324;2023-02-23T14:07:58;71.63;;;51.33;;
9294;SDS011;4686;44.496;11.324;2023-02-23T14:10:28;69.50;;;49.27;;
9294;SDS011;4686;44.496;11.324;2023-02-23T14:13:04;70.67;;;46.97;;
9294;SDS011;4686;44.496;11.324;2023-02-23T14:15:40;73.30;;;50.60;;
9294;SDS011;4686;44.496;11.324;2023-02-23T14:18:28;73.70;;;49.60;;
9294;SDS011;4686;44.496;11.324;2023-02-23T14:20:56;73.80;;;49.37;;
9294;SDS011;4686;44.496;11.324;2023-02-23T14:23:28;71.73;;;48.47;;
9294;SDS011;4686;44.496;11.324;2023-02-23T14:26:12;74.83;;;51.37;;
9294;SDS011;4686;44.496;11.324;2023-02-23T14:28:42;86.20;;;52.70;;
9294;SDS011;4686;44.496;11.324;2023-02-23T14:31:19;81.10;;;50.57;;
9294;SDS011;4686;44.496;11.324;2023-02-23T14:33:51;69.90;;;47.80;;
9294;SDS011;4686;44.496;11.324;2023-02-23T14:36:34;74.87;;;47.50;;
9294;SDS011;4686;44.496;11.324;2023-02-23T14:39:03;75.03;;;51.67;;
9294;SDS011;4686;44.496;11.324;2023-02-23T14:41:35;86.50;;;56.60;;
9294;SDS011;4686;44.496;11.324;2023-02-23T14:44:10;70.30;;;47.93;;
9294;SDS011;4686;44.496;11.324;2023-02-23T14:46:38;79.53;;;49.20;;
9294;SDS011;4686;44.496;11.324;2023-02-23T14:49:14;70.47;;;47.20;;
9294;SDS011;4686;44.496;11.324;2023-02-23T14:51:44;74.17;;;48.20;;
9294;SDS011;4686;44.496;11.324;2023-02-23T14:54:20;72.50;;;46.93;;
9294;SDS011;4686;44.496;11.324;2023-02-23T14:56:49;79.17;;;52.17;;
9294;SDS011;4686;44.496;11.324;2023-02-23T14:59:18;68.70;;;47.33;;
9294;SDS011;4686;44.496;11.324;2023-02-23T15:01:46;73.73;;;45.37;;
9294;SDS011;4686;44.496;11.324;2023-02-23T15:04:15;68.93;;;45.10;;
9294;SDS011;4686;44.496;11.324;2023-02-23T15:06:46;65.93;;;45.47;;
9294;SDS011;4686;44.496;11.324;2023-02-23T15:09:15;67.60;;;45.17;;
9294;SDS011;4686;44.496;11.324;2023-02-23T15:11:44;66.33;;;46.53;;
9294;SDS011;4686;44.496;11.324;2023-02-23T15:14:14;69.13;;;44.87;;
9294;SDS011;4686;44.496;11.324;2023-02-23T15:16:43;66.10;;;44.53;;
9294;SDS011;4686;44.496;11.324;2023-02-23T15:19:13;63.33;;;44.20;;
9294;SDS011;4686;44.496;11.324;2023-02-23T15:21:49;61.70;;;42.53;;